createdAt,value
2017-07-08T00:00:40.558Z,0
2017-07-08T00:01:41.981Z,0
2017-07-08T00:02:43.485Z,0
2017-07-08T00:03:44.907Z,0
2017-07-08T00:04:46.354Z,0
2017-07-08T00:05:47.780Z,0
2017-07-08T00:06:49.204Z,0
2017-07-08T00:07:50.632Z,0
2017-07-08T00:08:52.055Z,0
2017-07-08T00:09:53.498Z,0
2017-07-08T00:10:54.924Z,0
2017-07-08T00:11:56.346Z,0
2017-07-08T00:12:57.774Z,0
2017-07-08T00:13:59.197Z,0
2017-07-08T00:15:00.622Z,0
2017-07-08T00:16:02.047Z,0
2017-07-08T00:17:03.468Z,0
2017-07-08T00:18:04.906Z,0
2017-07-08T00:19:06.333Z,0
2017-07-08T00:20:07.757Z,0
2017-07-08T00:21:09.186Z,0
2017-07-08T00:22:10.609Z,0
2017-07-08T00:23:12.039Z,0
2017-07-08T00:24:13.463Z,0
2017-07-08T00:25:14.885Z,0
2017-07-08T00:26:16.323Z,0
2017-07-08T00:27:17.746Z,0
2017-07-08T00:28:19.193Z,0
2017-07-08T00:29:20.840Z,0
2017-07-08T00:30:22.261Z,0
2017-07-08T00:31:23.681Z,0
2017-07-08T00:32:25.128Z,0
2017-07-08T00:33:26.551Z,0
2017-07-08T00:34:27.976Z,0
2017-07-08T00:35:29.398Z,0
2017-07-08T00:36:30.823Z,0
2017-07-08T00:37:32.248Z,0
2017-07-08T00:38:33.670Z,0
2017-07-08T00:39:35.094Z,0
2017-07-08T00:40:36.519Z,0
2017-07-08T00:41:37.945Z,0
2017-07-08T00:42:39.371Z,0
2017-07-08T00:43:40.796Z,0
2017-07-08T00:44:42.221Z,0
2017-07-08T00:45:43.650Z,0
2017-07-08T00:46:45.075Z,0
2017-07-08T00:47:46.497Z,0
2017-07-08T00:48:47.920Z,0
2017-07-08T00:49:49.343Z,0
2017-07-08T00:50:50.765Z,0
2017-07-08T00:51:52.188Z,0
2017-07-08T00:52:53.609Z,0
2017-07-08T00:53:55.036Z,0
2017-07-08T00:54:56.497Z,0
2017-07-08T00:55:57.920Z,0
2017-07-08T00:56:59.348Z,0
2017-07-08T00:58:00.769Z,0
2017-07-08T00:59:02.192Z,0
2017-07-08T01:00:03.619Z,0
2017-07-08T01:01:05.040Z,0
2017-07-08T01:02:06.475Z,0
2017-07-08T01:03:07.906Z,0
2017-07-08T01:04:09.331Z,0
2017-07-08T01:05:10.780Z,0
2017-07-08T01:06:12.202Z,0
2017-07-08T01:07:13.629Z,0
2017-07-08T01:08:15.055Z,0
2017-07-08T01:09:16.479Z,0
2017-07-08T01:10:17.897Z,0
2017-07-08T01:11:19.325Z,0
2017-07-08T01:12:20.749Z,0
2017-07-08T01:13:22.181Z,0
2017-07-08T01:14:23.604Z,0
2017-07-08T01:15:25.026Z,0
2017-07-08T01:16:26.451Z,0
2017-07-08T01:17:27.878Z,0
2017-07-08T01:18:29.300Z,0
2017-07-08T01:19:30.721Z,0
2017-07-08T01:20:32.143Z,0
2017-07-08T01:21:33.568Z,0
2017-07-08T01:22:35.002Z,0
2017-07-08T01:23:36.426Z,0
2017-07-08T01:24:37.875Z,0
2017-07-08T01:25:39.297Z,0
2017-07-08T01:26:40.724Z,0
2017-07-08T01:27:42.148Z,0
2017-07-08T01:28:43.575Z,0
2017-07-08T01:29:45.003Z,0
2017-07-08T01:30:46.489Z,0
2017-07-08T01:31:47.851Z,0
2017-07-08T01:32:49.274Z,0
2017-07-08T01:33:50.702Z,0
2017-07-08T01:34:52.126Z,0
2017-07-08T01:35:53.550Z,0
2017-07-08T01:36:54.974Z,0
2017-07-08T01:37:56.401Z,0
2017-07-08T01:38:57.825Z,0
2017-07-08T01:39:59.252Z,0
2017-07-08T01:41:00.677Z,0
2017-07-08T01:42:02.103Z,0
2017-07-08T01:43:03.526Z,0
2017-07-08T01:44:04.949Z,0
2017-07-08T01:45:06.369Z,0
2017-07-08T01:46:07.811Z,0
2017-07-08T01:47:09.222Z,0
2017-07-08T01:48:10.651Z,0
2017-07-08T01:49:12.069Z,0
2017-07-08T01:50:13.494Z,0
2017-07-08T01:51:14.917Z,0
2017-07-08T01:52:16.340Z,0
2017-07-08T01:53:17.764Z,0
2017-07-08T01:54:19.200Z,0
2017-07-08T01:55:20.622Z,0
2017-07-08T01:56:22.046Z,0
2017-07-08T01:57:23.471Z,0
2017-07-08T01:58:24.897Z,0
2017-07-08T01:59:26.323Z,0
2017-07-08T02:00:27.748Z,0
2017-07-08T02:01:29.173Z,0
2017-07-08T02:02:30.601Z,0
2017-07-08T02:03:32.021Z,0
2017-07-08T02:04:33.451Z,0
2017-07-08T02:05:34.891Z,0
2017-07-08T02:06:36.317Z,0
2017-07-08T02:07:37.739Z,0
2017-07-08T02:08:39.206Z,0
2017-07-08T02:09:40.593Z,0
2017-07-08T02:10:42.018Z,0
2017-07-08T02:11:43.441Z,0
2017-07-08T02:12:44.862Z,0
2017-07-08T02:13:46.288Z,0
2017-07-08T02:14:47.712Z,0
2017-07-08T02:15:49.142Z,0
2017-07-08T02:16:50.562Z,0
2017-07-08T02:17:51.986Z,0
2017-07-08T02:18:53.411Z,0
2017-07-08T02:19:54.835Z,0
2017-07-08T02:20:56.260Z,0
2017-07-08T02:21:57.682Z,0
2017-07-08T02:22:59.105Z,0
2017-07-08T02:24:00.531Z,0
2017-07-08T02:25:01.955Z,0
2017-07-08T02:26:03.379Z,0
2017-07-08T02:27:04.804Z,0
2017-07-08T02:28:06.227Z,0
2017-07-08T02:29:07.651Z,0
2017-07-08T02:30:09.076Z,0
2017-07-08T02:31:10.504Z,0
2017-07-08T02:32:11.927Z,0
2017-07-08T02:33:13.348Z,0
2017-07-08T02:34:14.770Z,0
2017-07-08T02:35:16.198Z,0
2017-07-08T02:36:17.623Z,0
2017-07-08T02:37:19.047Z,0
2017-07-08T02:38:20.472Z,0
2017-07-08T02:39:21.897Z,0
2017-07-08T02:40:23.318Z,0
2017-07-08T02:41:24.759Z,0
2017-07-08T02:42:26.184Z,0
2017-07-08T02:43:27.611Z,0
2017-07-08T02:44:29.034Z,0
2017-07-08T02:45:30.457Z,0
2017-07-08T02:46:31.873Z,0
2017-07-08T02:47:33.304Z,0
2017-07-08T02:48:34.731Z,0
2017-07-08T02:49:36.152Z,0
2017-07-08T02:50:37.578Z,0
2017-07-08T02:51:39.000Z,0
2017-07-08T02:52:40.423Z,0
2017-07-08T02:53:41.848Z,0
2017-07-08T02:54:43.274Z,0
2017-07-08T02:55:44.697Z,0
2017-07-08T02:56:46.144Z,0
2017-07-08T02:57:47.568Z,0
2017-07-08T02:58:48.988Z,0
2017-07-08T02:59:50.413Z,0
2017-07-08T03:00:51.839Z,0
2017-07-08T03:01:53.265Z,0
2017-07-08T03:02:54.688Z,0
2017-07-08T03:03:56.114Z,0
2017-07-08T03:04:57.538Z,0
2017-07-08T03:05:58.962Z,0
2017-07-08T03:07:00.385Z,0
2017-07-08T03:08:01.830Z,0
2017-07-08T03:09:03.252Z,0
2017-07-08T03:10:04.679Z,0
2017-07-08T03:11:06.105Z,4
2017-07-08T03:12:07.527Z,4
2017-07-08T03:13:08.951Z,4
2017-07-08T03:14:10.375Z,4
2017-07-08T03:15:11.820Z,4
2017-07-08T03:16:13.246Z,4
2017-07-08T03:17:14.671Z,4
2017-07-08T03:18:16.093Z,4
2017-07-08T03:19:17.521Z,4
2017-07-08T03:20:18.943Z,4
2017-07-08T03:21:20.366Z,4
2017-07-08T03:22:21.787Z,4
2017-07-08T03:23:23.214Z,8
2017-07-08T03:24:24.639Z,8
2017-07-08T03:25:26.059Z,4
2017-07-08T03:26:27.483Z,8
2017-07-08T03:27:28.915Z,8
2017-07-08T03:28:30.340Z,8
2017-07-08T03:29:31.766Z,8
2017-07-08T03:30:33.191Z,12
2017-07-08T03:31:34.633Z,8
2017-07-08T03:32:36.062Z,8
2017-07-08T03:33:37.482Z,12
2017-07-08T03:34:38.906Z,12
2017-07-08T03:35:40.335Z,16
2017-07-08T03:36:41.763Z,12
2017-07-08T03:37:43.187Z,16
2017-07-08T03:38:44.607Z,16
2017-07-08T03:39:46.038Z,20
2017-07-08T03:40:47.459Z,16
2017-07-08T03:43:08.847Z,20
2017-07-08T03:44:10.272Z,24
2017-07-08T03:45:11.701Z,20
2017-07-08T03:46:13.128Z,24
2017-07-08T03:47:14.554Z,24
2017-07-08T03:48:15.978Z,24
2017-07-08T03:49:17.404Z,28
2017-07-08T03:50:18.825Z,28
2017-07-08T03:51:20.246Z,28
2017-07-08T03:52:21.670Z,32
2017-07-08T03:53:23.103Z,32
2017-07-08T03:54:24.532Z,36
2017-07-08T03:55:25.955Z,32
2017-07-08T03:56:27.377Z,36
2017-07-08T03:57:28.803Z,36
2017-07-08T03:58:30.235Z,40
2017-07-08T03:59:31.657Z,40
2017-07-08T04:00:33.139Z,44
2017-07-08T04:01:34.504Z,44
2017-07-08T04:02:35.929Z,48
2017-07-08T04:03:37.349Z,48
2017-07-08T04:04:38.775Z,48
2017-07-08T04:05:40.199Z,48
2017-07-08T04:06:41.624Z,48
2017-07-08T04:07:43.046Z,52
2017-07-08T04:08:44.470Z,52
2017-07-08T04:09:45.898Z,56
2017-07-08T04:10:47.321Z,52
2017-07-08T04:11:48.751Z,52
2017-07-08T04:12:50.175Z,56
2017-07-08T04:13:51.592Z,56
2017-07-08T04:14:53.036Z,60
2017-07-08T04:15:54.460Z,56
2017-07-08T04:16:55.909Z,60
2017-07-08T04:17:57.324Z,60
2017-07-08T04:18:58.747Z,60
2017-07-08T04:20:00.169Z,60
2017-07-08T04:21:01.594Z,64
2017-07-08T04:22:03.017Z,60
2017-07-08T04:23:04.442Z,60
2017-07-08T04:24:05.863Z,64
2017-07-08T04:25:07.289Z,64
2017-07-08T04:26:08.717Z,64
2017-07-08T04:27:10.139Z,64
2017-07-08T04:28:11.567Z,64
2017-07-08T04:29:12.993Z,68
2017-07-08T04:30:14.416Z,68
2017-07-08T04:31:15.838Z,68
2017-07-08T04:32:17.265Z,72
2017-07-08T04:33:18.687Z,72
2017-07-08T04:34:20.113Z,72
2017-07-08T04:35:21.542Z,76
2017-07-08T04:36:22.959Z,76
2017-07-08T04:37:24.378Z,80
2017-07-08T04:38:25.800Z,80
2017-07-08T04:39:27.227Z,80
2017-07-08T04:40:28.653Z,84
2017-07-08T04:41:30.072Z,84
2017-07-08T04:42:31.497Z,84
2017-07-08T04:43:32.926Z,92
2017-07-08T04:44:34.352Z,92
2017-07-08T04:45:35.773Z,96
2017-07-08T04:46:37.201Z,100
2017-07-08T04:47:38.626Z,104
2017-07-08T04:48:40.042Z,112
2017-07-08T04:49:41.482Z,116
2017-07-08T04:50:42.907Z,116
2017-07-08T04:51:44.337Z,120
2017-07-08T04:52:45.762Z,128
2017-07-08T04:53:47.185Z,132
2017-07-08T04:54:48.611Z,136
2017-07-08T04:55:50.035Z,144
2017-07-08T04:56:51.460Z,148
2017-07-08T04:57:52.885Z,156
2017-07-08T04:58:54.312Z,160
2017-07-08T04:59:55.734Z,164
2017-07-08T05:00:57.159Z,160
2017-07-08T05:01:58.605Z,160
2017-07-08T05:03:00.028Z,168
2017-07-08T05:04:01.453Z,172
2017-07-08T05:05:02.875Z,176
2017-07-08T05:06:04.312Z,176
2017-07-08T05:07:05.738Z,180
2017-07-08T05:08:07.165Z,180
2017-07-08T05:09:08.591Z,184
2017-07-08T05:10:10.017Z,180
2017-07-08T05:11:11.442Z,184
2017-07-08T05:12:12.867Z,188
2017-07-08T05:13:14.290Z,188
2017-07-08T05:14:15.715Z,188
2017-07-08T05:15:17.165Z,184
2017-07-08T05:16:18.566Z,184
2017-07-08T05:17:20.000Z,188
2017-07-08T05:18:21.419Z,188
2017-07-08T05:19:22.842Z,192
2017-07-08T05:20:24.268Z,196
2017-07-08T05:21:25.691Z,196
2017-07-08T05:22:27.117Z,200
2017-07-08T05:23:28.540Z,204
2017-07-08T05:24:29.966Z,208
2017-07-08T05:25:31.394Z,216
2017-07-08T05:26:32.818Z,216
2017-07-08T05:27:34.245Z,220
2017-07-08T05:28:35.665Z,228
2017-07-08T05:29:37.090Z,228
2017-07-08T05:30:38.516Z,232
2017-07-08T05:31:39.940Z,232
2017-07-08T05:32:41.366Z,236
2017-07-08T05:33:42.789Z,236
2017-07-08T05:34:44.214Z,240
2017-07-08T05:35:45.640Z,236
2017-07-08T05:36:47.065Z,240
2017-07-08T05:37:48.491Z,240
2017-07-08T05:38:49.917Z,240
2017-07-08T05:39:51.343Z,236
2017-07-08T05:40:52.768Z,228
2017-07-08T05:41:54.190Z,220
2017-07-08T05:42:55.619Z,212
2017-07-08T05:43:57.041Z,200
2017-07-08T05:44:58.463Z,188
2017-07-08T05:45:59.890Z,184
2017-07-08T05:47:01.313Z,180
2017-07-08T05:48:02.743Z,176
2017-07-08T05:49:04.167Z,176
2017-07-08T05:50:05.591Z,180
2017-07-08T05:51:07.017Z,184
2017-07-08T05:52:08.442Z,188
2017-07-08T05:53:09.867Z,192
2017-07-08T05:54:11.289Z,200
2017-07-08T05:55:12.717Z,208
2017-07-08T05:56:14.142Z,216
2017-07-08T05:57:15.570Z,236
2017-07-08T05:58:16.990Z,248
2017-07-08T05:59:18.417Z,268
2017-07-08T06:00:19.847Z,284
2017-07-08T06:01:21.273Z,296
2017-07-08T06:02:22.695Z,304
2017-07-08T06:03:24.137Z,316
2017-07-08T06:04:25.568Z,308
2017-07-08T06:05:27.014Z,296
2017-07-08T06:06:28.420Z,280
2017-07-08T06:07:29.846Z,276
2017-07-08T06:08:31.271Z,276
2017-07-08T06:09:32.699Z,276
2017-07-08T06:10:34.122Z,284
2017-07-08T06:11:35.546Z,288
2017-07-08T06:12:36.971Z,300
2017-07-08T06:13:38.392Z,308
2017-07-08T06:14:39.819Z,316
2017-07-08T06:17:01.622Z,324
2017-07-08T06:18:43.041Z,352
2017-07-08T06:19:44.467Z,360
2017-07-08T06:21:25.881Z,380
2017-07-08T06:23:07.607Z,408
2017-07-08T06:24:49.023Z,416
2017-07-08T06:26:30.438Z,404
2017-07-08T06:27:31.863Z,388
2017-07-08T06:28:33.291Z,392
2017-07-08T06:29:34.717Z,392
2017-07-08T06:30:36.144Z,404
2017-07-08T06:31:37.574Z,400
2017-07-08T06:32:39.000Z,396
2017-07-08T06:33:40.423Z,392
2017-07-08T06:34:41.855Z,388
2017-07-08T06:35:43.277Z,388
2017-07-08T06:36:44.705Z,388
2017-07-08T06:37:46.132Z,388
2017-07-08T06:38:47.560Z,396
2017-07-08T06:39:48.986Z,396
2017-07-08T06:40:50.414Z,396
2017-07-08T06:41:51.839Z,400
2017-07-08T06:42:53.266Z,412
2017-07-08T06:43:54.693Z,416
2017-07-08T06:44:56.121Z,420
2017-07-08T06:45:57.550Z,428
2017-07-08T06:46:58.978Z,432
2017-07-08T06:48:00.403Z,436
2017-07-08T06:49:01.831Z,440
2017-07-08T06:50:03.257Z,448
2017-07-08T06:51:04.682Z,456
2017-07-08T06:52:06.110Z,468
2017-07-08T06:53:07.540Z,484
2017-07-08T06:54:08.967Z,508
2017-07-08T06:55:10.393Z,524
2017-07-08T06:56:11.822Z,540
2017-07-08T06:57:13.247Z,544
2017-07-08T06:58:14.676Z,548
2017-07-08T06:59:16.102Z,536
2017-07-08T07:00:17.530Z,532
2017-07-08T07:01:18.962Z,512
2017-07-08T07:02:20.384Z,496
2017-07-08T07:03:21.812Z,480
2017-07-08T07:04:23.242Z,456
2017-07-08T07:05:24.669Z,436
2017-07-08T07:06:26.094Z,420
2017-07-08T07:07:27.520Z,404
2017-07-08T07:08:28.950Z,400
2017-07-08T07:09:30.377Z,396
2017-07-08T07:10:31.804Z,388
2017-07-08T07:11:33.230Z,376
2017-07-08T07:12:34.657Z,372
2017-07-08T07:13:36.082Z,368
2017-07-08T07:14:37.524Z,372
2017-07-08T07:15:38.949Z,396
2017-07-08T07:16:40.373Z,364
2017-07-08T07:17:41.796Z,392
2017-07-08T07:18:43.222Z,392
2017-07-08T07:19:44.646Z,392
2017-07-08T07:20:46.073Z,388
2017-07-08T07:21:47.498Z,380
2017-07-08T07:22:48.924Z,400
2017-07-08T07:23:50.350Z,392
2017-07-08T07:24:51.775Z,372
2017-07-08T07:25:53.202Z,380
2017-07-08T07:26:54.626Z,420
2017-07-08T07:27:56.050Z,420
2017-07-08T07:28:57.476Z,408
2017-07-08T07:29:58.901Z,416
2017-07-08T07:31:00.326Z,408
2017-07-08T07:32:01.751Z,384
2017-07-08T07:33:03.174Z,384
2017-07-08T07:34:04.609Z,364
2017-07-08T07:35:06.036Z,344
2017-07-08T07:36:07.461Z,388
2017-07-08T07:37:08.886Z,416
2017-07-08T07:38:10.313Z,392
2017-07-08T07:39:11.736Z,396
2017-07-08T07:40:13.163Z,396
2017-07-08T07:41:14.586Z,408
2017-07-08T07:42:16.016Z,404
2017-07-08T07:43:17.436Z,404
2017-07-08T07:44:18.864Z,404
2017-07-08T07:45:20.290Z,404
2017-07-08T07:46:21.714Z,408
2017-07-08T07:47:23.142Z,408
2017-07-08T07:48:24.567Z,412
2017-07-08T07:49:25.989Z,412
2017-07-08T07:50:27.414Z,420
2017-07-08T07:51:28.844Z,416
2017-07-08T07:52:30.268Z,428
2017-07-08T07:53:31.693Z,432
2017-07-08T07:54:33.116Z,420
2017-07-08T07:55:34.546Z,440
2017-07-08T07:56:35.974Z,432
2017-07-08T07:57:37.401Z,436
2017-07-08T07:58:38.827Z,436
2017-07-08T07:59:40.247Z,440
2017-07-08T08:00:41.675Z,440
2017-07-08T08:01:43.101Z,444
2017-07-08T08:02:44.525Z,440
2017-07-08T08:03:45.952Z,436
2017-07-08T08:04:47.376Z,432
2017-07-08T08:05:48.801Z,432
2017-07-08T08:06:50.226Z,428
2017-07-08T08:07:51.653Z,428
2017-07-08T08:08:53.081Z,416
2017-07-08T08:09:54.505Z,420
2017-07-08T08:10:55.935Z,416
2017-07-08T08:11:57.357Z,420
2017-07-08T08:12:58.785Z,420
2017-07-08T08:14:00.209Z,420
2017-07-08T08:15:01.637Z,420
2017-07-08T08:16:03.064Z,424
2017-07-08T08:17:04.898Z,420
2017-07-08T08:18:06.377Z,416
2017-07-08T08:19:07.801Z,420
2017-07-08T08:20:09.260Z,420
2017-07-08T08:21:10.692Z,424
2017-07-08T08:22:12.127Z,420
2017-07-08T08:23:13.552Z,424
2017-07-08T08:24:14.977Z,424
2017-07-08T08:25:16.403Z,424
2017-07-08T08:26:17.830Z,424
2017-07-08T08:27:19.256Z,428
2017-07-08T08:28:20.681Z,424
2017-07-08T08:29:22.110Z,424
2017-07-08T08:30:23.533Z,428
2017-07-08T08:31:24.959Z,424
2017-07-08T08:32:26.383Z,424
2017-07-08T08:33:27.815Z,424
2017-07-08T08:34:29.245Z,420
2017-07-08T08:35:30.671Z,408
2017-07-08T08:36:32.103Z,372
2017-07-08T08:37:33.524Z,368
2017-07-08T08:38:34.955Z,396
2017-07-08T08:39:36.378Z,424
2017-07-08T08:40:37.802Z,428
2017-07-08T08:41:39.227Z,428
2017-07-08T08:42:40.653Z,432
2017-07-08T08:43:42.078Z,332
2017-07-08T08:44:43.522Z,432
2017-07-08T08:45:44.955Z,428
2017-07-08T08:46:46.369Z,432
2017-07-08T08:47:47.793Z,436
2017-07-08T08:48:49.220Z,432
2017-07-08T08:49:50.646Z,436
2017-07-08T08:50:52.070Z,436
2017-07-08T08:51:53.495Z,436
2017-07-08T08:52:54.920Z,440
2017-07-08T08:53:56.354Z,436
2017-07-08T08:54:57.780Z,436
2017-07-08T08:55:59.207Z,436
2017-07-08T08:57:00.631Z,428
2017-07-08T08:58:02.080Z,436
2017-07-08T08:59:03.487Z,432
2017-07-08T09:00:04.912Z,432
2017-07-08T09:01:06.337Z,432
2017-07-08T09:02:07.764Z,432
2017-07-08T09:03:09.190Z,428
2017-07-08T09:04:10.618Z,424
2017-07-08T09:05:12.045Z,424
2017-07-08T09:06:13.467Z,424
2017-07-08T09:07:14.896Z,424
2017-07-08T09:08:16.321Z,424
2017-07-08T09:09:17.746Z,424
2017-07-08T09:10:19.174Z,424
2017-07-08T09:11:20.595Z,428
2017-07-08T09:12:22.028Z,424
2017-07-08T09:13:23.457Z,424
2017-07-08T09:14:24.878Z,424
2017-07-08T09:15:26.309Z,428
2017-07-08T09:16:27.740Z,428
2017-07-08T09:17:29.162Z,428
2017-07-08T09:18:30.596Z,424
2017-07-08T09:19:32.022Z,428
2017-07-08T09:20:33.452Z,424
2017-07-08T09:21:34.876Z,428
2017-07-08T09:22:36.302Z,432
2017-07-08T09:23:37.739Z,436
2017-07-08T09:24:39.164Z,440
2017-07-08T09:25:40.591Z,440
2017-07-08T09:26:42.020Z,440
2017-07-08T09:27:43.446Z,444
2017-07-08T09:28:44.876Z,448
2017-07-08T09:29:46.297Z,448
2017-07-08T09:30:47.720Z,452
2017-07-08T09:31:49.156Z,456
2017-07-08T09:32:50.580Z,464
2017-07-08T09:33:52.006Z,464
2017-07-08T09:34:53.434Z,472
2017-07-08T09:35:54.862Z,476
2017-07-08T09:36:56.298Z,484
2017-07-08T09:37:57.720Z,492
2017-07-08T09:38:59.146Z,500
2017-07-08T09:40:00.571Z,512
2017-07-08T09:41:02.011Z,520
2017-07-08T09:42:03.439Z,556
2017-07-08T09:43:04.865Z,576
2017-07-08T09:44:06.292Z,588
2017-07-08T09:45:07.718Z,636
2017-07-08T09:46:09.148Z,652
2017-07-08T09:47:10.575Z,624
2017-07-08T09:48:51.989Z,652
2017-07-08T09:49:53.417Z,616
2017-07-08T09:50:54.841Z,604
2017-07-08T09:51:56.269Z,580
2017-07-08T09:52:57.696Z,640
2017-07-08T09:53:59.125Z,624
2017-07-08T09:55:00.549Z,608
2017-07-08T09:56:01.988Z,632
2017-07-08T09:57:03.412Z,668
2017-07-08T09:58:04.838Z,656
2017-07-08T09:59:06.261Z,616
2017-07-08T10:00:07.684Z,548
2017-07-08T10:01:09.113Z,536
2017-07-08T10:02:10.539Z,572
2017-07-08T10:03:11.967Z,576
2017-07-08T10:04:13.390Z,596
2017-07-08T10:05:14.816Z,600
2017-07-08T10:06:16.244Z,576
2017-07-08T10:07:17.669Z,548
2017-07-08T10:08:19.092Z,544
2017-07-08T10:09:20.517Z,544
2017-07-08T10:10:21.944Z,528
2017-07-08T10:11:23.369Z,520
2017-07-08T10:12:24.794Z,516
2017-07-08T10:13:26.224Z,524
2017-07-08T10:14:27.653Z,528
2017-07-08T10:15:29.079Z,532
2017-07-08T10:16:30.505Z,528
2017-07-08T10:17:31.930Z,476
2017-07-08T10:18:33.356Z,532
2017-07-08T10:19:34.781Z,512
2017-07-08T10:20:36.207Z,504
2017-07-08T10:21:37.634Z,512
2017-07-08T10:22:39.059Z,520
2017-07-08T10:23:40.511Z,528
2017-07-08T10:24:41.923Z,556
2017-07-08T10:25:43.350Z,556
2017-07-08T10:26:44.781Z,560
2017-07-08T10:27:46.205Z,552
2017-07-08T10:28:47.636Z,544
2017-07-08T10:29:49.058Z,564
2017-07-08T10:30:50.487Z,568
2017-07-08T10:31:51.920Z,560
2017-07-08T10:32:53.344Z,540
2017-07-08T10:33:54.765Z,536
2017-07-08T10:34:56.199Z,572
2017-07-08T10:35:57.629Z,560
2017-07-08T10:36:59.058Z,576
2017-07-08T10:38:00.486Z,584
2017-07-08T10:39:01.913Z,596
2017-07-08T10:40:03.399Z,592
2017-07-08T10:41:04.777Z,580
2017-07-08T10:42:06.200Z,588
2017-07-08T10:43:07.629Z,588
2017-07-08T10:44:09.058Z,592
2017-07-08T10:45:10.513Z,604
2017-07-08T10:46:11.938Z,612
2017-07-08T10:47:13.366Z,624
2017-07-08T10:48:14.794Z,620
2017-07-08T10:49:16.221Z,620
2017-07-08T10:50:17.657Z,616
2017-07-08T10:51:19.087Z,608
2017-07-08T10:52:20.521Z,580
2017-07-08T10:53:21.949Z,568
2017-07-08T10:54:23.373Z,520
2017-07-08T10:55:24.810Z,548
2017-07-08T10:56:26.229Z,552
2017-07-08T10:57:27.670Z,552
2017-07-08T10:58:29.098Z,552
2017-07-08T10:59:30.530Z,564
2017-07-08T11:00:31.955Z,572
2017-07-08T11:01:33.381Z,572
2017-07-08T11:02:34.804Z,576
2017-07-08T11:03:36.230Z,576
2017-07-08T11:04:37.678Z,584
2017-07-08T11:05:39.107Z,584
2017-07-08T11:06:40.534Z,588
2017-07-08T11:07:41.959Z,592
2017-07-08T11:08:43.465Z,596
2017-07-08T11:09:44.891Z,596
2017-07-08T11:10:46.326Z,600
2017-07-08T11:11:47.755Z,604
2017-07-08T11:12:49.182Z,612
2017-07-08T11:13:50.606Z,616
2017-07-08T11:14:52.031Z,620
2017-07-08T11:15:53.459Z,624
2017-07-08T11:16:54.887Z,624
2017-07-08T11:17:56.308Z,632
2017-07-08T11:18:57.734Z,560
2017-07-08T11:19:59.160Z,636
2017-07-08T11:21:00.585Z,644
2017-07-08T11:22:02.018Z,648
2017-07-08T11:23:03.461Z,660
2017-07-08T11:24:04.889Z,676
2017-07-08T11:25:06.317Z,688
2017-07-08T11:26:07.741Z,700
2017-07-08T11:27:09.174Z,720
2017-07-08T11:28:10.603Z,748
2017-07-08T11:29:12.032Z,760
2017-07-08T11:30:13.461Z,780
2017-07-08T11:31:14.890Z,804
2017-07-08T11:32:16.324Z,848
2017-07-08T11:33:17.754Z,864
2017-07-08T11:34:19.178Z,884
2017-07-08T11:35:20.672Z,888
2017-07-08T11:36:22.100Z,920
2017-07-08T11:37:23.530Z,936
2017-07-08T11:38:24.957Z,976
2017-07-08T11:39:26.382Z,1008
2017-07-08T11:40:27.813Z,1028
2017-07-08T11:41:29.243Z,1036
2017-07-08T11:42:30.670Z,1032
2017-07-08T11:43:32.097Z,1036
2017-07-08T11:44:33.524Z,1032
2017-07-08T11:45:34.953Z,1036
2017-07-08T11:46:36.381Z,1044
2017-07-08T11:47:37.811Z,1016
2017-07-08T11:48:39.241Z,1096
2017-07-08T11:49:40.667Z,1092
2017-07-08T11:50:42.110Z,1172
2017-07-08T11:51:43.534Z,1232
2017-07-08T11:52:44.960Z,1240
2017-07-08T11:53:46.394Z,1284
2017-07-08T11:54:47.818Z,1300
2017-07-08T11:55:49.248Z,1316
2017-07-08T11:56:50.681Z,1352
2017-07-08T11:57:52.107Z,1400
2017-07-08T11:58:53.543Z,1472
2017-07-08T11:59:54.970Z,1512
2017-07-08T12:00:56.399Z,1564
2017-07-08T12:01:57.826Z,1616
2017-07-08T12:02:59.256Z,1716
2017-07-08T12:04:00.692Z,1768
2017-07-08T12:05:02.164Z,1700
2017-07-08T12:06:03.596Z,1460
2017-07-08T12:07:05.025Z,1556
2017-07-08T12:08:06.455Z,1952
2017-07-08T12:09:07.889Z,2016
2017-07-08T12:10:09.312Z,1880
2017-07-08T12:11:10.792Z,1916
2017-07-08T12:12:12.211Z,2256
2017-07-08T12:13:13.646Z,2428
2017-07-08T12:14:15.095Z,2448
2017-07-08T12:15:16.523Z,2400
2017-07-08T12:16:17.951Z,2372
2017-07-08T12:17:19.380Z,2536
2017-07-08T12:18:20.810Z,2708
2017-07-08T12:19:22.243Z,2768
2017-07-08T12:20:23.671Z,2524
2017-07-08T12:21:25.097Z,2064
2017-07-08T12:22:26.530Z,2136
2017-07-08T12:23:27.970Z,1880
2017-07-08T12:24:29.393Z,1924
2017-07-08T12:25:30.830Z,1604
2017-07-08T12:26:32.258Z,1584
2017-07-08T12:27:33.691Z,1800
2017-07-08T12:28:35.119Z,1744
2017-07-08T12:29:36.547Z,1964
2017-07-08T12:30:37.975Z,1756
2017-07-08T12:31:39.408Z,2280
2017-07-08T12:32:40.841Z,2464
2017-07-08T12:33:42.268Z,2680
2017-07-08T12:34:43.693Z,3048
2017-07-08T12:35:45.131Z,3232
2017-07-08T12:36:46.560Z,2808
2017-07-08T12:37:47.991Z,2788
2017-07-08T12:38:49.421Z,2512
2017-07-08T12:39:50.851Z,2924
2017-07-08T12:40:52.284Z,1596
2017-07-08T12:41:53.714Z,1920
2017-07-08T12:42:55.144Z,2620
2017-07-08T12:43:56.573Z,2260
2017-07-08T12:44:58.008Z,2316
2017-07-08T12:45:59.444Z,1952
2017-07-08T12:47:00.871Z,1320
2017-07-08T12:48:02.305Z,1232
2017-07-08T12:49:03.742Z,1324
2017-07-08T12:50:05.174Z,1272
2017-07-08T12:51:06.601Z,1404
2017-07-08T12:52:08.034Z,1624
2017-07-08T12:53:09.463Z,3092
2017-07-08T12:54:10.894Z,3180
2017-07-08T12:55:12.327Z,3012
2017-07-08T12:56:13.761Z,3096
2017-07-08T12:57:15.194Z,3248
2017-07-08T12:58:16.622Z,3644
2017-07-08T12:59:18.060Z,4248
2017-07-08T13:00:19.492Z,4484
2017-07-08T13:01:20.924Z,4072
2017-07-08T13:02:22.353Z,3844
2017-07-08T13:03:23.783Z,3708
2017-07-08T13:04:25.217Z,3976
2017-07-08T13:05:26.657Z,3704
2017-07-08T13:06:28.080Z,3452
2017-07-08T13:07:29.533Z,4100
2017-07-08T13:08:30.980Z,4312
2017-07-08T13:09:32.400Z,4260
2017-07-08T13:10:33.842Z,1916
2017-07-08T13:11:35.273Z,4348
2017-07-08T13:12:36.704Z,4216
2017-07-08T13:13:38.138Z,3496
2017-07-08T13:14:39.569Z,1588
2017-07-08T13:15:41.003Z,2372
2017-07-08T13:16:42.429Z,2272
2017-07-08T13:17:43.856Z,1796
2017-07-08T13:18:45.289Z,1668
2017-07-08T13:19:46.719Z,1248
2017-07-08T13:20:48.152Z,1184
2017-07-08T13:21:49.583Z,1200
2017-07-08T13:22:51.015Z,1248
2017-07-08T13:23:52.450Z,2196
2017-07-08T13:24:53.885Z,4944
2017-07-08T13:25:55.309Z,5524
2017-07-08T13:26:56.745Z,5380
2017-07-08T13:27:58.181Z,5132
2017-07-08T13:28:59.618Z,4268
2017-07-08T13:30:01.042Z,5448
2017-07-08T13:31:02.486Z,5636
2017-07-08T13:32:03.917Z,5672
2017-07-08T13:33:05.353Z,5496
2017-07-08T13:34:06.790Z,3776
2017-07-08T13:35:08.222Z,4752
2017-07-08T13:36:09.653Z,2864
2017-07-08T13:37:11.088Z,4056
2017-07-08T13:38:12.519Z,4900
2017-07-08T13:39:13.949Z,4692
2017-07-08T13:40:15.380Z,5648
2017-07-08T13:41:16.816Z,5264
2017-07-08T13:42:18.251Z,6232
2017-07-08T13:43:19.683Z,5736
2017-07-08T13:44:21.115Z,5608
2017-07-08T13:45:22.546Z,6368
2017-07-08T13:46:23.980Z,5844
2017-07-08T13:47:25.420Z,4704
2017-07-08T13:48:26.852Z,5808
2017-07-08T13:49:28.282Z,4704
2017-07-08T13:50:29.714Z,5004
2017-07-08T13:51:31.147Z,5936
2017-07-08T13:52:32.577Z,5464
2017-07-08T13:53:34.010Z,5612
2017-07-08T13:54:35.444Z,5668
2017-07-08T13:55:36.878Z,3544
2017-07-08T13:56:38.309Z,5880
2017-07-08T13:57:39.741Z,5900
2017-07-08T13:58:41.172Z,5912
2017-07-08T13:59:42.603Z,6068
2017-07-08T14:00:44.033Z,5932
2017-07-08T14:01:45.469Z,6264
2017-07-08T14:02:46.903Z,6512
2017-07-08T14:03:48.337Z,6676
2017-07-08T14:04:49.776Z,6716
2017-07-08T14:05:51.209Z,6000
2017-07-08T14:06:52.640Z,6672
2017-07-08T14:07:54.075Z,6836
2017-07-08T14:08:55.507Z,6632
2017-07-08T14:09:56.940Z,6412
2017-07-08T14:10:58.375Z,6760
2017-07-08T14:11:59.807Z,5688
2017-07-08T14:13:01.238Z,4452
2017-07-08T14:14:02.677Z,5944
2017-07-08T14:15:04.111Z,6608
2017-07-08T14:16:05.543Z,4772
2017-07-08T14:17:06.974Z,6156
2017-07-08T14:18:08.410Z,6944
2017-07-08T14:19:09.847Z,7284
2017-07-08T14:20:11.273Z,7156
2017-07-08T14:21:12.721Z,5696
2017-07-08T14:22:14.161Z,4960
2017-07-08T14:23:15.599Z,4732
2017-07-08T14:24:17.033Z,4396